Terminal Aerodrome Forecast
Issued by NWS Shreveport, LA

Home | Current Version | Previous Version | Text Only | Print | Product List | Glossary On
Versions: 1 2 3 4 5 6 7 8 9 10 11 12 13 14 15 16 17 18
227
FTUS44 KSHV 232049 AAA
TAFELD
TAF AMD
KELD 232049Z 2321/2418 17011G20KT P6SM SKC
     FM240000 15005KT P6SM SKC
     FM241100 15009KT P6SM SCT015 BKN025
     FM241500 16012G19KT P6SM OVC015=

USA.gov is the U.S. government's official web portal to all federal, state and local government web resources and services.